Time;durP1;ratioP1;P1;durP2;ratioP2;P2;SDS_P1;SDS_P2;PMS_P1;PMS_P2;Temp;Humidity;BMP_temperature;BMP_pressure;BME280_temperature;BME280_humidity;BME280_pressure;Samples;Min_cycle;Max_cycle;Signal;HPM_P1;HPM_P2
2022/08/02 00:00:52;;;;;;;2.97;0.60;;;25.60;90.20;;;;;;5052779;28;20025;-45
2022/08/02 00:03:18;;;;;;;0.77;0.50;;;25.10;59.60;;;;;;5052662;28;20100;-46
2022/08/02 00:05:44;;;;;;;1.30;0.60;;;;;;;;;;5052615;28;20053;-47
2022/08/02 00:08:10;;;;;;;1.38;0.52;;;;;;;;;;5052249;28;20446;-47
2022/08/02 00:10:36;;;;;;;0.60;0.40;;;;;;;;;;5052527;28;20025;-46
2022/08/02 00:13:02;;;;;;;1.23;0.60;;;;;;;;;;5052775;28;20025;-45
2022/08/02 00:15:28;;;;;;;1.42;0.65;;;;;;;;;;5052500;28;20499;-46
2022/08/02 00:17:54;;;;;;;1.45;0.60;;;;;;;;;;5052398;28;20075;-50
2022/08/02 00:20:20;;;;;;;0.60;0.43;;;;;;;;;;5052527;28;20086;-49
2022/08/02 00:22:46;;;;;;;1.25;0.55;;;;;;;;;;5052371;28;20025;-50
2022/08/02 00:25:12;;;;;;;0.90;0.65;;;;;;;;;;5052374;28;20096;-45
2022/08/02 00:27:38;;;;;;;1.73;0.60;;;;;;;;;;5052284;28;20029;-45
2022/08/02 00:30:04;;;;;;;1.95;0.63;;;;;;;;;;5052283;28;20513;-50
2022/08/02 00:32:30;;;;;;;1.00;0.43;;;;;;;;;;5052296;28;20543;-52
2022/08/02 00:34:56;;;;;;;2.63;0.70;;;;;;;;;;5052256;28;20029;-50
2022/08/02 00:37:22;;;;;;;1.10;0.60;;;;;;;;;;5052052;28;20099;-48
2022/08/02 00:39:48;;;;;;;0.40;0.40;;;;;;;;;;5052471;28;20027;-46
2022/08/02 00:42:15;;;;;;;1.85;0.60;;;25.40;55.90;;;;;;5052203;28;20029;-45
2022/08/02 00:44:41;;;;;;;1.00;0.30;;;25.60;90.20;;;;;;5052151;28;20024;-46
2022/08/02 00:47:07;;;;;;;0.85;0.50;;;25.70;90.40;;;;;;5052186;28;20032;-45
2022/08/02 00:49:32;;;;;;;1.00;0.52;;;25.60;90.20;;;;;;5052117;28;20096;-49
2022/08/02 00:51:58;;;;;;;0.68;0.47;;;;;;;;;;5052078;28;20115;-46
2022/08/02 00:54:24;;;;;;;0.98;0.60;;;;;;;;;;5052318;28;20059;-45
2022/08/02 00:56:50;;;;;;;0.57;0.50;;;25.20;86.20;;;;;;5052029;28;20395;-47
2022/08/02 00:59:16;;;;;;;0.77;0.50;;;;;;;;;;5051945;28;20013;-44
2022/08/02 01:01:42;;;;;;;2.28;0.70;;;;;;;;;;5051941;28;20437;-46
2022/08/02 01:04:10;;;;;;;0.93;0.63;;;25.30;55.70;;;;;;5051991;28;20074;-46
2022/08/02 01:06:38;;;;;;;0.55;0.52;;;25.40;55.70;;;;;;5051927;28;20018;-45
2022/08/02 01:09:05;;;;;;;0.50;0.50;;;26.10;59.70;;;;;;5051867;28;20475;-46
2022/08/02 01:11:32;;;;;;;1.52;0.50;;;25.40;90.20;;;;;;5051881;28;20471;-48
2022/08/02 01:14:04;;;;;;;1.35;0.47;;;25.30;55.60;;;;;;5051973;28;20029;-46
2022/08/02 01:16:36;;;;;;;0.80;0.50;;;25.30;55.80;;;;;;5051842;28;20463;-46
2022/08/02 01:19:19;;;;;;;1.63;0.50;;;25.10;79.00;;;;;;5053350;28;20028;-46
2022/08/02 01:21:54;;;;;;;0.95;0.50;;;25.00;90.10;;;;;;5055787;28;20017;-46
2022/08/02 01:24:31;;;;;;;0.68;0.55;;;25.70;90.20;;;;;;5055721;28;20021;-47
2022/08/02 01:27:29;;;;;;;0.68;0.50;;;25.00;90.20;;;;;;5055698;28;20103;-46
2022/08/02 01:29:59;;;;;;;1.40;0.50;;;25.40;90.20;;;;;;5044292;28;20527;-47
2022/08/02 01:32:28;;;;;;;;;;;25.30;56.00;;;;;;5056091;28;20021;-46
2022/08/02 01:35:10;;;;;;;2.20;0.63;;;24.90;57.70;;;;;;5055489;28;19912;-47
2022/08/02 01:37:53;;;;;;;1.10;0.40;;;25.30;52.00;;;;;;5055233;28;20045;-49
2022/08/02 01:40:30;;;;;;;0.43;0.40;;;25.30;90.30;;;;;;5055391;28;20032;-49
2022/08/02 01:42:59;;;;;;;0.80;0.70;;;;;;;;;;5055342;28;20044;-50
2022/08/02 01:45:28;;;;;;;0.45;0.43;;;25.10;90.10;;;;;;5055314;28;20490;-52
2022/08/02 01:47:55;;;;;;;0.47;0.43;;;25.30;60.80;;;;;;5055139;28;20040;-47
2022/08/02 01:50:32;;;;;;;0.35;0.30;;;25.40;90.30;;;;;;5055340;28;20499;-47
2022/08/02 01:53:02;;;;;;;0.90;0.40;;;25.30;55.60;;;;;;5055205;28;20032;-47
2022/08/02 01:55:28;;;;;;;1.98;0.60;;;;;;;;;;5055123;28;20039;-50
2022/08/02 01:57:57;;;;;;;0.80;0.40;;;25.30;55.90;;;;;;5054975;28;20059;-47
2022/08/02 02:00:26;;;;;;;0.70;0.52;;;25.10;90.10;;;;;;5055005;28;20140;-51
2022/08/02 02:02:54;;;;;;;0.68;0.40;;;25.00;90.10;;;;;;5054910;28;20021;-48
2022/08/02 02:05:22;;;;;;;0.95;0.63;;;25.20;55.80;;;;;;5054917;28;20055;-47
2022/08/02 02:07:54;;;;;;;0.40;0.40;;;25.00;90.10;;;;;;5054877;28;20057;-46
2022/08/02 02:10:27;;;;;;;0.63;0.30;;;25.20;55.80;;;;;;5053726;28;20033;-46
2022/08/02 02:12:55;;;;;;;0.80;0.40;;;25.00;90.10;;;;;;5054816;28;20070;-51
2022/08/02 02:15:22;;;;;;;0.63;0.40;;;25.10;90.10;;;;;;5054677;28;20049;-48
2022/08/02 02:17:51;;;;;;;0.52;0.40;;;25.20;55.80;;;;;;5054844;28;20116;-46
2022/08/02 02:20:19;;;;;;;0.60;0.40;;;25.10;90.10;;;;;;5054646;28;20013;-45
2022/08/02 02:22:45;;;;;;;1.17;0.60;;;24.90;90.10;;;;;;5054557;28;20032;-47
2022/08/02 02:25:12;;;;;;;1.50;0.60;;;25.00;90.30;;;;;;5054566;28;20379;-48
2022/08/02 02:27:47;;;;;;;0.75;0.50;;;25.20;56.00;;;;;;5054636;28;20616;-47
2022/08/02 02:30:13;;;;;;;0.80;0.50;;;24.90;90.10;;;;;;5054130;28;20027;-46
2022/08/02 02:32:40;;;;;;;0.95;0.47;;;25.20;90.20;;;;;;5054461;28;20154;-47
2022/08/02 02:35:09;;;;;;;0.57;0.43;;;25.00;64.60;;;;;;5054308;28;20021;-47
2022/08/02 02:37:36;;;;;;;0.75;0.32;;;25.20;55.70;;;;;;5054185;28;20083;-47
2022/08/02 02:40:03;;;;;;;1.27;0.57;;;25.20;90.10;;;;;;5054473;28;20378;-46
2022/08/02 02:42:30;;;;;;;1.45;0.52;;;24.80;90.00;;;;;;5054203;28;20471;-46
2022/08/02 02:44:57;;;;;;;1.20;0.40;;;25.10;64.70;;;;;;5054190;28;20032;-47
2022/08/02 02:47:24;;;;;;;0.70;0.40;;;25.10;90.20;;;;;;5054178;28;20548;-46
2022/08/02 02:49:51;;;;;;;0.82;0.45;;;25.20;55.80;;;;;;5054130;28;20060;-48
2022/08/02 02:52:17;;;;;;;0.47;0.45;;;25.10;90.20;;;;;;5054048;28;20104;-46
2022/08/02 02:54:46;;;;;;;1.15;0.55;;;25.30;90.20;;;;;;5054047;28;20112;-47
2022/08/02 02:57:13;;;;;;;0.75;0.50;;;24.90;68.00;;;;;;5053852;28;20487;-45
2022/08/02 02:59:40;;;;;;;1.35;0.60;;;25.10;53.90;;;;;;5053877;28;20104;-47
2022/08/02 03:02:06;;;;;;;1.20;0.60;;;;;;;;;;5053744;28;20108;-46
2022/08/02 03:04:32;;;;;;;0.93;0.50;;;;;;;;;;5053808;28;20471;-47
2022/08/02 03:07:00;;;;;;;1.48;0.55;;;25.10;55.70;;;;;;5053764;28;20112;-46
2022/08/02 03:09:26;;;;;;;1.42;0.60;;;25.40;90.20;;;;;;5053664;28;20048;-48
2022/08/02 03:11:53;;;;;;;0.70;0.50;;;25.10;55.70;;;;;;5053664;28;20029;-46
2022/08/02 03:14:20;;;;;;;1.45;0.40;;;24.60;90.00;;;;;;5053567;28;20028;-47
2022/08/02 03:16:48;;;;;;;1.42;0.50;;;25.10;90.00;;;;;;5053470;28;20084;-46
2022/08/02 03:19:14;;;;;;;1.50;0.50;;;;;;;;;;5053468;28;20017;-47
2022/08/02 03:21:45;;;;;;;0.40;0.30;;;25.30;78.50;;;;;;5053511;28;20036;-46
2022/08/02 03:24:12;;;;;;;1.00;0.40;;;24.70;90.00;;;;;;5053466;28;20029;-45
2022/08/02 03:26:38;;;;;;;2.78;0.65;;;;;;;;;;5053401;28;20052;-46
2022/08/02 03:29:04;;;;;;;0.82;0.47;;;;;;;;;;5053319;28;20075;-46
2022/08/02 03:31:30;;;;;;;0.40;0.30;;;;;;;;;;5053286;28;20029;-46
2022/08/02 03:33:58;;;;;;;0.88;0.63;;;25.20;65.40;;;;;;5053224;28;20108;-47
2022/08/02 03:36:26;;;;;;;2.78;0.60;;;25.10;55.60;;;;;;5052878;28;20083;-46
2022/08/02 03:38:53;;;;;;;1.20;0.40;;;25.10;55.00;;;;;;5053161;28;20061;-45
2022/08/02 03:41:20;;;;;;;0.85;0.50;;;25.00;90.10;;;;;;5052392;28;20109;-46
2022/08/02 03:43:47;;;;;;;0.60;0.50;;;25.10;55.70;;;;;;5053116;28;20029;-46
2022/08/02 03:46:19;;;;;;;0.77;0.47;;;25.40;90.30;;;;;;5052959;28;20040;-45
2022/08/02 03:48:47;;;;;;;0.70;0.60;;;25.40;90.30;;;;;;5053007;28;20021;-47
2022/08/02 03:51:14;;;;;;;1.05;0.50;;;25.20;90.10;;;;;;5053136;28;20390;-46
2022/08/02 03:53:40;;;;;;;0.52;0.47;;;;;;;;;;5052879;28;20029;-46
2022/08/02 03:56:06;;;;;;;0.90;0.50;;;25.00;54.00;;;;;;5052719;28;20036;-45
2022/08/02 03:58:32;;;;;;;0.90;0.30;;;25.00;79.50;;;;;;5052769;28;20040;-45
2022/08/02 04:00:58;;;;;;;1.90;0.73;;;24.70;90.00;;;;;;5052755;28;20029;-45
2022/08/02 04:03:24;;;;;;;0.90;0.40;;;;;;;;;;5052687;28;20029;-45
2022/08/02 04:05:51;;;;;;;1.13;0.40;;;25.10;90.00;;;;;;5052648;28;20471;-45
2022/08/02 04:08:17;;;;;;;1.35;0.52;;;25.10;90.10;;;;;;5052844;28;20029;-44
2022/08/02 04:13:34;;;;;;;1.13;0.32;;;25.30;90.10;;;;;;5052556;28;20454;-45
2022/08/02 04:16:26;;;;;;;2.03;0.50;;;25.00;51.60;;;;;;5052648;28;20100;-46
2022/08/02 04:19:01;;;;;;;1.20;0.60;;;25.10;90.10;;;;;;5052797;28;20055;-46
2022/08/02 04:21:32;;;;;;;0.70;0.40;;;25.30;90.20;;;;;;5052429;28;20031;-45
2022/08/02 04:23:58;;;;;;;0.40;0.38;;;;;;;;;;5052485;28;20024;-48
2022/08/02 04:26:25;;;;;;;0.60;0.43;;;;;;;;;;5052381;28;20029;-45
2022/08/02 04:28:51;;;;;;;0.65;0.40;;;25.20;90.00;;;;;;5052369;28;20079;-46
2022/08/02 04:31:18;;;;;;;1.00;0.57;;;25.20;90.00;;;;;;5052324;28;20017;-45
2022/08/02 04:33:45;;;;;;;1.10;0.50;;;24.90;53.00;;;;;;5052278;28;20170;-45
2022/08/02 04:36:12;;;;;;;1.15;0.43;;;25.30;90.10;;;;;;5052078;28;20044;-46
2022/08/02 04:38:39;;;;;;;0.40;0.30;;;25.30;89.80;;;;;;5052305;28;20468;-45
2022/08/02 04:41:04;;;;;;;0.70;0.40;;;25.00;90.00;;;;;;5052188;28;20025;-47
2022/08/02 04:43:30;;;;;;;0.65;0.40;;;;;;;;;;5052208;28;20035;-45
2022/08/02 04:45:56;;;;;;;0.77;0.40;;;;;;;;;;5052174;28;20032;-47
2022/08/02 04:48:23;;;;;;;0.93;0.50;;;;;;;;;;5052151;28;20099;-46
2022/08/02 04:50:49;;;;;;;0.47;0.30;;;24.60;89.60;;;;;;5052412;28;20036;-45
2022/08/02 04:53:14;;;;;;;1.95;0.45;;;24.80;89.70;;;;;;5053735;28;20021;-46
2022/08/02 04:55:40;;;;;;;1.15;0.50;;;24.90;87.70;;;;;;5056560;28;20116;-45
2022/08/02 04:58:06;;;;;;;0.57;0.40;;;;;;;;;;5056126;28;20060;-45
2022/08/02 05:00:32;;;;;;;1.00;0.32;;;;;;;;;;5056102;28;20023;-49
2022/08/02 05:02:59;;;;;;;1.67;0.68;;;24.90;55.10;;;;;;5056006;28;20108;-48
2022/08/02 05:05:25;;;;;;;0.73;0.40;;;25.20;90.00;;;;;;5056013;28;20025;-49
2022/08/02 05:07:51;;;;;;;0.90;0.40;;;24.60;89.80;;;;;;5055941;28;20028;-50
2022/08/02 05:10:17;;;;;;;0.45;0.45;;;25.10;89.90;;;;;;5055951;28;20395;-49
2022/08/02 05:12:42;;;;;;;0.70;0.40;;;24.60;89.60;;;;;;5055917;28;20064;-48
2022/08/02 05:15:10;;;;;;;1.20;0.70;;;24.90;88.80;;;;;;5056165;28;20017;-46
2022/08/02 05:17:36;;;;;;;1.45;0.60;;;;;;;;;;5055926;28;20114;-49
2022/08/02 05:20:03;;;;;;;0.70;0.50;;;24.70;55.90;;;;;;5055737;28;20027;-48
2022/08/02 05:22:29;;;;;;;1.95;0.50;;;25.20;90.10;;;;;;5055637;28;20043;-50
2022/08/02 05:24:55;;;;;;;2.67;0.70;;;;;;;;;;5055918;28;20475;-47
2022/08/02 05:27:21;;;;;;;0.63;0.35;;;24.80;90.00;;;;;;5055926;28;20025;-46
2022/08/02 05:29:48;;;;;;;1.50;0.40;;;25.00;90.00;;;;;;5055807;28;20016;-46
2022/08/02 05:32:14;;;;;;;1.20;0.70;;;;;;;;;;5055604;28;20013;-45
2022/08/02 05:34:40;;;;;;;0.95;0.45;;;25.20;79.60;;;;;;5055570;28;20029;-45
2022/08/02 05:37:06;;;;;;;1.25;0.57;;;;;;;;;;5055207;28;20051;-45
2022/08/02 05:39:32;;;;;;;0.75;0.50;;;;;;;;;;5055367;28;20025;-46
2022/08/02 05:41:58;;;;;;;1.35;0.50;;;;;;;;;;5055338;28;20525;-46
2022/08/02 05:44:24;;;;;;;0.70;0.50;;;;;;;;;;5055385;28;20064;-45
2022/08/02 05:46:49;;;;;;;2.25;0.55;;;25.10;90.20;;;;;;5055582;28;20025;-48
2022/08/02 05:49:15;;;;;;;1.50;0.65;;;24.80;90.10;;;;;;5055306;28;20032;-45
2022/08/02 05:52:13;;;;;;;3.10;0.90;;;25.10;90.20;;;;;;5055498;28;20025;-46
2022/08/02 05:54:39;;;;;;;0.70;0.57;;;25.00;90.00;;;;;;5053056;28;20044;-46
2022/08/02 05:57:07;;;;;;;1.80;0.60;;;25.10;90.10;;;;;;5054966;28;20037;-45
2022/08/02 05:59:58;;;;;;;0.88;0.50;;;25.00;90.10;;;;;;5055084;28;20241;-46
2022/08/02 06:02:46;;;;;;;1.20;0.40;;;24.90;51.60;;;;;;5055189;28;20356;-45
2022/08/02 06:05:14;;;;;;;1.30;0.73;;;24.60;90.00;;;;;;5054205;28;20052;-45
2022/08/02 06:07:41;;;;;;;0.95;0.60;;;24.80;55.70;;;;;;5054891;28;20074;-46
2022/08/02 06:10:08;;;;;;;1.13;0.68;;;25.00;90.30;;;;;;5054893;28;20017;-45
2022/08/02 06:12:48;;;;;;;0.75;0.50;;;22.60;54.80;;;;;;5054876;28;20025;-46
2022/08/02 06:15:16;;;;;;;0.85;0.68;;;24.80;55.70;;;;;;5054787;28;20364;-48
2022/08/02 06:17:42;;;;;;;2.42;0.60;;;;;;;;;;5054654;28;20052;-45
2022/08/02 06:20:10;;;;;;;2.55;0.63;;;24.60;69.70;;;;;;5054678;28;20078;-45
2022/08/02 06:22:43;;;;;;;1.70;0.52;;;24.90;55.90;;;;;;5054662;28;20495;-47
2022/08/02 06:25:11;;;;;;;1.50;0.80;;;24.90;90.20;;;;;;5054442;28;20501;-47
2022/08/02 06:27:38;;;;;;;1.40;0.75;;;25.10;90.30;;;;;;5054624;28;20021;-45
2022/08/02 06:30:05;;;;;;;1.40;0.60;;;25.20;63.90;;;;;;5054502;28;20025;-46
2022/08/02 06:32:33;;;;;;;0.88;0.55;;;25.10;90.50;;;;;;5054434;28;20032;-46
2022/08/02 06:34:58;;;;;;;1.90;0.90;;;25.10;90.40;;;;;;5054374;28;20104;-47
2022/08/02 06:37:40;;;;;;;1.15;0.60;;;25.20;88.60;;;;;;5054093;28;20072;-46
2022/08/02 06:40:06;;;;;;;1.77;0.70;;;;;;;;;;5054512;28;20052;-47
2022/08/02 06:42:54;;;;;;;1.45;0.82;;;24.80;56.40;;;;;;5054222;28;20037;-45
2022/08/02 06:45:20;;;;;;;1.85;0.80;;;25.10;90.20;;;;;;5054212;28;20040;-45
2022/08/02 06:47:46;;;;;;;1.10;0.63;;;;;;;;;;5054249;28;20025;-45
2022/08/02 06:50:12;;;;;;;1.88;0.70;;;;;;;;;;5054077;28;20376;-46
2022/08/02 06:52:39;;;;;;;1.05;0.63;;;25.00;83.40;;;;;;5054125;28;20025;-46
2022/08/02 06:55:05;;;;;;;3.28;0.70;;;25.10;90.50;;;;;;5053981;28;20364;-47
2022/08/02 06:57:32;;;;;;;0.70;0.70;;;25.10;90.40;;;;;;5053858;28;20458;-46
2022/08/02 07:00:03;;;;;;;1.23;0.80;;;24.80;54.60;;;;;;5053873;28;20021;-46
2022/08/02 07:02:30;;;;;;;1.38;0.75;;;25.10;90.40;;;;;;5053849;28;20437;-46
2022/08/02 07:04:56;;;;;;;1.77;1.10;;;;;;;;;;5053886;28;20443;-50
2022/08/02 07:07:22;;;;;;;3.50;0.77;;;;;;;;;;5053957;28;20029;-47
2022/08/02 07:09:50;;;;;;;0.70;0.60;;;;;;;;;;5053714;28;20024;-47
2022/08/02 07:12:15;;;;;;;2.35;0.60;;;25.00;90.50;;;;;;5053536;28;20025;-47
2022/08/02 07:14:41;;;;;;;1.52;0.70;;;25.10;90.50;;;;;;5053674;28;20051;-50
2022/08/02 07:17:06;;;;;;;3.13;0.95;;;25.10;90.50;;;;;;5052417;28;20037;-47
2022/08/02 07:19:32;;;;;;;1.10;0.80;;;24.60;84.00;;;;;;5053497;28;20063;-47
2022/08/02 07:21:58;;;;;;;2.58;0.77;;;;;;;;;;5053471;28;20476;-46
2022/08/02 07:24:24;;;;;;;0.77;0.60;;;;;;;;;;5053429;28;20068;-47
2022/08/02 07:26:50;;;;;;;2.05;0.82;;;;;;;;;;5053332;28;20437;-47
2022/08/02 07:29:16;;;;;;;1.63;0.90;;;;;;;;;;5053270;28;20032;-46
2022/08/02 07:31:42;;;;;;;1.40;1.10;;;;;;;;;;5053470;28;20044;-47
2022/08/02 07:34:08;;;;;;;2.85;0.90;;;;;;;;;;5053209;28;20029;-47
2022/08/02 07:36:34;;;;;;;1.90;0.68;;;;;;;;;;5052934;28;20059;-46
2022/08/02 07:39:00;;;;;;;1.77;0.80;;;;;;;;;;5053130;28;20029;-47
2022/08/02 07:41:26;;;;;;;3.47;0.90;;;;;;;;;;5053147;28;20031;-45
2022/08/02 07:43:52;;;;;;;1.95;0.90;;;;;;;;;;5053048;28;20032;-46
2022/08/02 07:46:18;;;;;;;4.07;1.10;;;;;;;;;;5052974;28;20086;-46
2022/08/02 07:48:46;;;;;;;3.85;1.00;;;24.90;57.10;;;;;;5052989;28;20036;-46
2022/08/02 07:51:12;;;;;;;2.60;1.10;;;;;;;;;;5052839;28;20017;-47
2022/08/02 07:53:38;;;;;;;3.72;1.13;;;;;;;;;;5052744;28;20036;-46
2022/08/02 07:56:04;;;;;;;3.05;1.10;;;24.40;58.00;;;;;;5052750;28;20467;-46
2022/08/02 07:58:29;;;;;;;2.50;1.10;;;25.20;91.00;;;;;;5052695;28;20036;-46
2022/08/02 08:00:55;;;;;;;3.38;0.95;;;25.10;90.90;;;;;;5052808;28;20519;-48
2022/08/02 08:03:21;;;;;;;2.05;0.85;;;24.70;90.80;;;;;;5052672;28;20569;-46
2022/08/02 08:05:46;;;;;;;2.08;1.17;;;25.20;90.30;;;;;;5052636;28;20032;-48
2022/08/02 08:08:12;;;;;;;2.30;0.90;;;;;;;;;;5052631;28;20203;-46
2022/08/02 08:10:39;;;;;;;3.22;1.00;;;24.80;57.50;;;;;;5052581;28;20425;-47
2022/08/02 08:13:06;;;;;;;3.08;1.30;;;;;;;;;;5052667;28;20029;-46
2022/08/02 08:15:31;;;;;;;4.18;1.20;;;25.20;91.10;;;;;;5052542;28;20395;-49
2022/08/02 08:17:57;;;;;;;2.67;1.30;;;24.80;90.90;;;;;;5052494;28;20033;-46
2022/08/02 08:20:23;;;;;;;1.45;1.30;;;25.00;91.00;;;;;;5052507;28;20028;-46
2022/08/02 08:22:49;;;;;;;1.52;1.20;;;25.20;91.00;;;;;;5052297;28;20112;-47
2022/08/02 08:25:15;;;;;;;3.88;1.30;;;;;;;;;;5052495;28;20043;-47
2022/08/02 08:27:51;;;;;;;4.57;1.52;;;25.00;91.10;;;;;;5052208;28;20048;-45
2022/08/02 08:30:18;;;;;;;2.55;1.33;;;25.00;91.20;;;;;;5052243;28;20025;-45
2022/08/02 08:32:43;;;;;;;2.63;1.17;;;25.20;91.30;;;;;;5052277;28;20043;-46
2022/08/02 08:35:09;;;;;;;4.35;1.50;;;25.10;75.40;;;;;;5052205;28;20025;-47
2022/08/02 08:37:35;;;;;;;5.53;1.38;;;24.80;91.20;;;;;;5051973;28;20128;-45
2022/08/02 08:40:09;;;;;;;3.55;1.55;;;24.60;91.20;;;;;;5052451;28;20115;-47
2022/08/02 08:42:36;;;;;;;6.05;1.67;;;25.00;91.50;;;;;;5052082;28;20033;-46
2022/08/02 08:45:03;;;;;;;4.00;1.83;;;25.00;58.50;;;;;;5052153;28;20056;-47
2022/08/02 08:47:41;;;;;;;2.72;1.65;;;25.20;91.60;;;;;;5052067;28;20378;-48
2022/08/02 08:50:10;;;;;;;14.02;2.85;;;25.10;58.60;;;;;;5052288;28;20112;-49
2022/08/02 08:52:41;;;;;;;2.83;1.88;;;25.00;91.50;;;;;;5052237;28;20018;-47
2022/08/02 08:55:12;;;;;;;1.88;1.60;;;25.00;91.50;;;;;;5052100;28;20028;-45
2022/08/02 08:57:41;;;;;;;5.93;2.10;;;25.20;58.60;;;;;;5051928;28;20120;-45
2022/08/02 09:00:15;;;;;;;3.10;1.83;;;25.00;91.30;;;;;;5052137;28;20027;-47
2022/08/02 09:02:42;;;;;;;3.70;2.35;;;25.20;57.60;;;;;;5051701;28;20025;-47
2022/08/02 09:05:12;;;;;;;6.05;2.13;;;25.10;91.30;;;;;;5050526;28;20021;-47
2022/08/02 09:07:40;;;;;;;4.90;2.15;;;25.40;70.20;;;;;;5051636;28;20021;-47
2022/08/02 09:10:31;;;;;;;3.10;2.08;;;25.30;54.20;;;;;;5051693;28;20100;-46
2022/08/02 09:13:23;;;;;;;3.10;1.67;;;25.70;91.20;;;;;;5051763;28;20080;-46
2022/08/02 09:15:54;;;;;;;3.97;2.15;;;25.20;91.10;;;;;;5051911;28;20025;-46
2022/08/02 09:18:20;;;;;;;2.67;1.38;;;;;;;;;;5051822;28;20037;-45
2022/08/02 09:20:58;;;;;;;1.70;1.60;;;25.40;53.80;;;;;;5051550;28;20087;-46
2022/08/02 09:23:32;;;;;;;2.70;1.80;;;25.30;55.70;;;;;;5051630;28;20038;-46
2022/08/02 09:26:00;;;;;;;1.67;1.58;;;25.70;91.00;;;;;;5051886;28;20546;-49
2022/08/02 09:28:34;;;;;;;2.15;1.70;;;25.60;67.70;;;;;;5051485;28;20013;-45
2022/08/02 09:31:15;;;;;;;1.80;1.70;;;25.50;53.60;;;;;;5051535;28;20064;-46
2022/08/02 09:33:43;;;;;;;2.72;1.40;;;25.80;90.80;;;;;;5051626;28;20067;-46
2022/08/02 09:36:11;;;;;;;1.88;1.25;;;25.70;90.60;;;;;;5051479;28;20411;-46
2022/08/02 09:38:37;;;;;;;1.63;1.30;;;25.10;90.30;;;;;;5051445;28;20069;-46
2022/08/02 09:41:04;;;;;;;2.97;1.77;;;25.40;90.50;;;;;;5053980;28;20048;-45
2022/08/02 09:43:42;;;;;;;3.88;1.35;;;25.70;52.80;;;;;;5055116;28;20392;-46
2022/08/02 09:46:15;;;;;;;5.00;1.90;;;26.00;90.70;;;;;;5055143;28;20025;-45
2022/08/02 09:48:57;;;;;;;2.88;1.83;;;26.00;90.60;;;;;;5055181;28;20018;-46
2022/08/02 09:51:26;;;;;;;2.30;1.48;;;26.00;90.50;;;;;;5055206;28;20033;-46
2022/08/02 09:53:57;;;;;;;2.78;1.33;;;25.80;56.20;;;;;;5055261;28;20033;-47
2022/08/02 09:56:25;;;;;;;1.83;1.38;;;25.70;56.50;;;;;;5054850;28;20025;-47
2022/08/02 09:58:53;;;;;;;3.75;1.63;;;25.80;57.00;;;;;;5054884;28;20041;-52
2022/08/02 10:01:20;;;;;;;3.53;1.40;;;25.50;90.70;;;;;;5054903;28;20124;-51
2022/08/02 10:04:00;;;;;;;2.42;1.50;;;26.10;77.40;;;;;;5054805;28;20486;-51
2022/08/02 10:06:27;;;;;;;1.35;1.20;;;;;;;;;;5054895;28;20029;-47
2022/08/02 10:08:53;;;;;;;3.45;1.67;;;25.80;91.20;;;;;;5054751;28;20021;-47
2022/08/02 10:11:23;;;;;;;3.00;1.50;;;25.80;58.10;;;;;;5054740;28;20057;-52
2022/08/02 10:13:50;;;;;;;1.65;1.55;;;25.60;91.30;;;;;;5054562;28;20454;-51
2022/08/02 10:16:22;;;;;;;3.90;1.20;;;25.80;58.60;;;;;;5054518;28;20035;-47
2022/08/02 10:18:49;;;;;;;3.53;1.50;;;26.00;91.70;;;;;;5054584;28;20033;-47
2022/08/02 10:21:29;;;;;;;1.35;1.17;;;25.90;58.80;;;;;;5054478;28;20078;-46
2022/08/02 10:24:04;;;;;;;3.75;1.25;;;25.90;91.70;;;;;;5054745;28;20025;-45
2022/08/02 10:26:31;;;;;;;1.42;1.30;;;;;;;;;;5054490;28;20467;-46
2022/08/02 10:28:57;;;;;;;1.40;1.30;;;;;;;;;;5054546;28;20438;-48
2022/08/02 10:31:27;;;;;;;1.90;1.50;;;26.10;59.50;;;;;;5054416;28;20128;-45
2022/08/02 10:33:57;;;;;;;1.80;1.45;;;25.90;91.60;;;;;;5054439;28;20411;-47
2022/08/02 10:36:25;;;;;;;1.67;1.45;;;25.70;91.70;;;;;;5054148;28;20044;-46
2022/08/02 10:38:53;;;;;;;2.63;1.20;;;25.90;91.80;;;;;;5054291;28;20029;-47
2022/08/02 10:41:51;;;;;;;1.33;1.23;;;25.50;91.50;;;;;;5054224;28;20151;-47
2022/08/02 10:44:25;;;;;;;2.25;1.48;;;26.00;55.70;;;;;;5054184;28;20028;-45
2022/08/02 10:47:11;;;;;;;1.92;1.25;;;25.80;91.80;;;;;;5054313;28;20541;-47
2022/08/02 10:49:56;;;;;;;2.03;1.30;;;25.80;91.80;;;;;;5054032;28;20025;-47
2022/08/02 10:52:40;;;;;;;3.90;1.45;;;26.20;64.80;;;;;;5053869;28;20099;-47
2022/08/02 10:55:10;;;;;;;1.40;1.30;;;26.40;61.90;;;;;;5053939;28;20124;-46
2022/08/02 10:57:35;;;;;;;;;;;26.00;59.90;;;;;;5054348;28;20074;-47
2022/08/02 11:00:02;;;;;;;1.20;1.10;;;;;;;;;;5053977;28;20007;-47
2022/08/02 11:02:41;;;;;;;1.52;1.42;;;25.60;91.80;;;;;;5053829;28;20029;-48
2022/08/02 11:05:08;;;;;;;6.10;1.50;;;25.70;91.90;;;;;;5053985;28;20598;-46
2022/08/02 11:07:40;;;;;;;2.53;1.10;;;26.20;59.90;;;;;;5053575;28;20025;-47
2022/08/02 11:10:24;;;;;;;1.30;1.20;;;26.00;70.40;;;;;;5053814;28;20376;-46
2022/08/02 11:13:05;;;;;;;2.30;1.17;;;25.90;79.70;;;;;;5053537;28;20387;-45
2022/08/02 11:15:48;;;;;;;2.13;1.35;;;26.20;59.50;;;;;;5053428;28;20028;-47
2022/08/02 11:18:14;;;;;;;4.88;1.60;;;;;;;;;;5053322;28;20036;-47
2022/08/02 11:20:40;;;;;;;1.92;1.20;;;;;;;;;;5053597;28;20025;-47
2022/08/02 11:23:33;;;;;;;2.63;1.35;;;25.80;91.50;;;;;;5053337;28;20634;-50
2022/08/02 11:25:59;;;;;;;3.53;1.10;;;25.80;91.40;;;;;;5053225;28;20033;-53
2022/08/02 11:28:25;;;;;;;2.25;1.27;;;26.40;90.90;;;;;;5053194;28;20549;-48
2022/08/02 11:30:59;;;;;;;2.13;1.40;;;26.50;91.50;;;;;;5053450;28;20047;-49
2022/08/02 11:33:34;;;;;;;2.40;1.10;;;26.40;91.30;;;;;;5053376;28;20021;-50
2022/08/02 11:36:05;;;;;;;3.30;1.30;;;26.40;65.00;;;;;;5052790;28;20025;-47
2022/08/02 11:38:32;;;;;;;2.28;1.40;;;26.70;91.20;;;;;;5053040;28;20055;-49
2022/08/02 11:40:58;;;;;;;1.55;1.10;;;;;;;;;;5053030;28;20021;-49
2022/08/02 11:43:29;;;;;;;2.13;1.08;;;26.40;78.40;;;;;;5052983;28;20479;-47
2022/08/02 11:45:56;;;;;;;1.75;0.80;;;;;;;;;;5052765;28;20475;-46
2022/08/02 11:48:39;;;;;;;1.33;1.00;;;26.60;67.00;;;;;;5050977;28;20506;-46
2022/08/02 11:51:23;;;;;;;2.65;1.10;;;26.70;90.90;;;;;;5052053;28;20029;-48
2022/08/02 11:53:56;;;;;;;2.50;1.40;;;26.60;90.80;;;;;;5052429;28;20143;-48
2022/08/02 11:56:27;;;;;;;1.33;1.13;;;26.50;90.80;;;;;;5051709;28;20021;-44
2022/08/02 11:59:03;;;;;;;2.42;1.10;;;26.10;90.70;;;;;;5052690;28;20091;-46
2022/08/02 12:01:30;;;;;;;3.60;1.27;;;26.10;90.40;;;;;;5052610;28;20380;-47
2022/08/02 12:03:59;;;;;;;2.63;1.00;;;;;;;;;;5052108;28;20021;-46
2022/08/02 12:06:27;;;;;;;3.88;1.20;;;26.10;90.40;;;;;;5052639;28;20471;-46
2022/08/02 12:09:01;;;;;;;1.17;1.00;;;26.30;90.30;;;;;;5052535;28;20048;-46
2022/08/02 12:11:27;;;;;;;3.65;0.98;;;26.30;90.30;;;;;;5052614;28;20021;-46
2022/08/02 12:13:53;;;;;;;1.48;0.82;;;26.20;90.30;;;;;;5052590;28;20036;-45
2022/08/02 12:19:18;;;;;;;2.25;1.20;;;;;;;;;;5052648;28;20098;-46
2022/08/02 12:21:45;;;;;;;1.75;0.90;;;26.40;55.30;;;;;;5052487;28;20128;-46
2022/08/02 12:24:11;;;;;;;1.60;1.10;;;;;;;;;;5052475;28;20087;-46
2022/08/02 12:26:45;;;;;;;2.22;1.10;;;26.50;90.40;;;;;;5052439;28;20036;-46
2022/08/02 12:29:11;;;;;;;3.00;1.15;;;26.10;90.10;;;;;;5052349;28;20027;-46
2022/08/02 12:31:47;;;;;;;2.45;1.08;;;26.50;90.30;;;;;;5052291;28;20070;-46
2022/08/02 12:34:16;;;;;;;1.05;0.85;;;26.80;90.60;;;;;;5052342;28;20482;-45
2022/08/02 12:36:55;;;;;;;0.98;0.80;;;26.50;54.60;;;;;;5052223;28;20045;-47
2022/08/02 12:39:31;;;;;;;1.30;1.05;;;26.30;90.30;;;;;;5052231;28;20021;-45
2022/08/02 12:41:57;;;;;;;3.25;1.00;;;26.70;90.40;;;;;;5052253;28;20029;-45
2022/08/02 12:44:23;;;;;;;3.30;0.93;;;;;;;;;;5052159;28;20114;-46
2022/08/02 12:47:03;;;;;;;2.40;0.93;;;26.50;90.20;;;;;;5052128;28;20533;-44
2022/08/02 12:49:29;;;;;;;5.45;0.98;;;26.50;90.40;;;;;;5052190;28;20066;-47
2022/08/02 12:51:55;;;;;;;2.08;0.82;;;26.90;90.80;;;;;;5052180;28;20025;-46
2022/08/02 12:54:24;;;;;;;3.75;1.00;;;26.30;90.60;;;;;;5052467;28;20021;-46
2022/08/02 12:56:51;;;;;;;2.63;0.95;;;;;;;;;;5052016;28;20109;-45
2022/08/02 12:59:36;;;;;;;3.33;0.90;;;26.30;61.70;;;;;;5052028;28;20475;-46
2022/08/02 13:02:10;;;;;;;5.03;1.00;;;26.70;90.90;;;;;;5050903;28;20025;-47
2022/08/02 13:04:36;;;;;;;3.40;1.17;;;27.10;90.90;;;;;;5052071;28;20017;-47
2022/08/02 13:07:03;;;;;;;1.88;1.17;;;26.90;57.50;;;;;;5052046;28;20028;-46
2022/08/02 13:09:40;;;;;;;1.75;0.93;;;27.00;57.60;;;;;;5051875;28;20025;-46
2022/08/02 13:12:07;;;;;;;1.92;0.80;;;26.70;90.80;;;;;;5052073;28;20049;-48
2022/08/02 13:14:33;;;;;;;1.30;0.90;;;;;;;;;;5054009;28;20021;-45
2022/08/02 13:16:59;;;;;;;0.88;0.65;;;27.40;91.00;;;;;;5056085;28;20033;-48
2022/08/02 13:19:25;;;;;;;2.47;1.38;;;27.10;90.80;;;;;;5055947;28;20025;-48
2022/08/02 13:21:51;;;;;;;3.30;0.75;;;27.40;91.00;;;;;;5055785;28;20024;-46
2022/08/02 13:24:17;;;;;;;1.58;0.75;;;27.00;90.90;;;;;;5055786;28;20044;-45
2022/08/02 13:26:43;;;;;;;2.65;1.10;;;;;;;;;;5055631;28;20106;-48
2022/08/02 13:29:10;;;;;;;0.80;0.77;;;26.80;90.60;;;;;;5055937;28;20090;-47
2022/08/02 13:31:37;;;;;;;4.80;1.27;;;26.90;90.70;;;;;;5055616;28;20070;-46